createdAt,value
2023-04-15T00:00:56.443Z,0.00
2023-04-15T00:01:56.483Z,0.00
2023-04-15T00:02:56.509Z,0.00
2023-04-15T00:03:56.250Z,0.00
2023-04-15T00:04:56.103Z,0.00
2023-04-15T00:05:56.064Z,0.00
2023-04-15T00:06:55.930Z,0.00
2023-04-15T00:07:55.848Z,0.00
2023-04-15T00:08:55.776Z,0.00
2023-04-15T00:09:55.681Z,0.00
2023-04-15T00:10:55.799Z,0.00
2023-04-15T00:11:55.507Z,0.00
2023-04-15T00:12:55.431Z,0.00
2023-04-15T00:13:55.337Z,0.00
2023-04-15T00:14:55.254Z,0.00
2023-04-15T00:15:55.176Z,0.00
2023-04-15T00:16:55.147Z,0.00
2023-04-15T00:17:55.074Z,0.00
2023-04-15T00:18:54.916Z,0.00
2023-04-15T00:19:54.878Z,0.00
2023-04-15T00:20:54.755Z,0.00
2023-04-15T00:21:54.665Z,0.00
2023-04-15T00:22:54.579Z,0.00
2023-04-15T00:23:54.494Z,0.00
2023-04-15T00:24:54.404Z,0.00
2023-04-15T00:25:54.420Z,0.00
2023-04-15T00:26:54.241Z,0.00
2023-04-15T00:27:54.152Z,0.00
2023-04-15T00:28:54.074Z,0.00
2023-04-15T00:29:54.381Z,0.00
2023-04-15T00:33:53.672Z,0.00
2023-04-15T00:34:53.557Z,0.00
2023-04-15T00:35:53.473Z,0.00
2023-04-15T00:36:53.387Z,0.00
2023-04-15T00:37:53.308Z,0.00
2023-04-15T00:38:53.218Z,0.00
2023-04-15T00:39:53.141Z,0.00
2023-04-15T00:40:53.048Z,0.00
2023-04-15T00:41:52.969Z,0.00
2023-04-15T00:42:52.878Z,0.00
2023-04-15T00:43:52.794Z,0.00
2023-04-15T00:44:52.715Z,0.00
2023-04-15T00:45:52.667Z,0.00
2023-04-15T00:46:52.537Z,0.00
2023-04-15T00:47:52.487Z,0.00
2023-04-15T00:48:52.368Z,0.00
2023-04-15T00:49:52.412Z,0.00
2023-04-15T00:50:52.196Z,0.00
2023-04-15T00:51:52.117Z,0.00
2023-04-15T00:52:52.036Z,0.00
2023-04-15T00:53:51.941Z,0.00
2023-04-15T00:54:51.855Z,0.00
2023-04-15T00:55:51.772Z,0.00
2023-04-15T00:56:51.702Z,0.00
2023-04-15T00:57:51.608Z,0.00
2023-04-15T00:58:51.514Z,0.00
2023-04-15T00:59:51.434Z,0.00
2023-04-15T01:00:51.345Z,0.00
2023-04-15T01:01:51.350Z,0.00
2023-04-15T01:02:51.279Z,0.00
2023-04-15T01:03:51.280Z,0.00
2023-04-15T01:04:51.011Z,0.00
2023-04-15T01:05:50.939Z,0.00
2023-04-15T01:06:50.842Z,0.00
2023-04-15T01:07:50.747Z,0.00
2023-04-15T01:08:50.661Z,0.00
2023-04-15T01:09:50.581Z,0.00
2023-04-15T01:10:50.492Z,0.00
2023-04-15T01:11:50.768Z,0.00
2023-04-15T01:12:50.325Z,0.00
2023-04-15T01:13:50.236Z,0.00
2023-04-15T01:14:50.301Z,0.00
2023-04-15T01:15:50.088Z,0.00
2023-04-15T01:16:49.987Z,0.00
2023-04-15T01:17:49.932Z,0.00
2023-04-15T01:18:49.813Z,0.00
2023-04-15T01:19:49.725Z,0.00
2023-04-15T01:20:49.644Z,0.00
2023-04-15T01:21:49.573Z,0.00
2023-04-15T01:22:49.486Z,0.00
2023-04-15T01:23:49.483Z,0.00
2023-04-15T01:24:49.298Z,0.00
2023-04-15T01:25:49.210Z,0.00
2023-04-15T01:26:49.129Z,0.00
2023-04-15T01:27:49.041Z,0.00
2023-04-15T01:28:48.958Z,0.00
2023-04-15T01:29:48.873Z,0.00
2023-04-15T01:30:48.792Z,0.00
2023-04-15T01:31:48.721Z,0.00
2023-04-15T01:32:49.069Z,0.00
2023-04-15T01:33:48.555Z,0.00
2023-04-15T01:34:48.446Z,0.00
2023-04-15T01:35:48.364Z,0.00
2023-04-15T01:36:48.280Z,0.00
2023-04-15T01:37:48.211Z,0.00
2023-04-15T01:38:48.104Z,0.00
2023-04-15T01:39:48.022Z,0.00
2023-04-15T01:40:47.947Z,0.00
2023-04-15T01:41:47.862Z,0.00
2023-04-15T01:42:47.769Z,0.00
2023-04-15T01:43:47.680Z,0.00
2023-04-15T01:44:47.607Z,0.00
2023-04-15T01:45:47.510Z,0.00
2023-04-15T01:46:47.429Z,0.00
2023-04-15T01:47:47.374Z,0.00
2023-04-15T01:48:47.455Z,0.00
2023-04-15T01:49:47.175Z,0.00
2023-04-15T01:50:47.087Z,0.00
2023-04-15T01:51:47.000Z,0.00
2023-04-15T01:52:46.917Z,0.00
2023-04-15T01:53:46.997Z,0.00
2023-04-15T01:54:46.747Z,0.00
2023-04-15T01:55:46.665Z,0.00
2023-04-15T01:56:46.675Z,0.00
2023-04-15T01:57:46.663Z,0.00
2023-04-15T01:58:46.406Z,0.00
2023-04-15T01:59:46.326Z,0.00
2023-04-15T02:00:46.262Z,0.00
2023-04-15T02:01:46.198Z,0.00
2023-04-15T02:02:46.340Z,0.00
2023-04-15T02:03:46.090Z,0.00
2023-04-15T02:04:45.894Z,0.00
2023-04-15T02:05:45.821Z,0.00
2023-04-15T02:06:45.723Z,0.00
2023-04-15T02:07:45.644Z,0.00
2023-04-15T02:08:45.552Z,0.00
2023-04-15T02:09:45.639Z,0.00
2023-04-15T02:10:45.382Z,0.00
2023-04-15T02:11:45.297Z,0.00
2023-04-15T02:12:45.212Z,0.00
2023-04-15T02:13:45.622Z,0.00
2023-04-15T02:14:45.046Z,0.00
2023-04-15T02:15:44.953Z,0.00
2023-04-15T02:16:44.915Z,0.00
2023-04-15T02:17:44.820Z,0.00
2023-04-15T02:18:44.748Z,0.00
2023-04-15T02:19:44.611Z,0.00
2023-04-15T02:20:44.529Z,0.00
2023-04-15T02:21:44.437Z,0.00
2023-04-15T02:22:44.404Z,0.00
2023-04-15T02:23:44.268Z,0.00
2023-04-15T02:24:44.189Z,0.00
2023-04-15T02:25:53.473Z,0.00
2023-04-15T02:26:44.016Z,0.00
2023-04-15T02:27:43.928Z,0.00
2023-04-15T02:28:43.842Z,0.00
2023-04-15T02:29:43.774Z,0.00
2023-04-15T02:30:43.673Z,0.00
2023-04-15T02:31:43.648Z,0.00
2023-04-15T02:32:43.507Z,0.00
2023-04-15T02:33:43.419Z,0.00
2023-04-15T02:34:43.337Z,0.00
2023-04-15T02:35:43.249Z,0.00
2023-04-15T02:36:43.164Z,0.00
2023-04-15T02:37:43.075Z,0.00
2023-04-15T02:38:42.992Z,0.00
2023-04-15T02:39:42.904Z,0.00
2023-04-15T02:40:42.819Z,0.00
2023-04-15T02:41:42.756Z,0.00
2023-04-15T02:42:42.660Z,0.00
2023-04-15T02:43:42.563Z,0.00
2023-04-15T02:44:42.477Z,0.00
2023-04-15T02:45:42.401Z,0.00
2023-04-15T02:46:42.333Z,0.00
2023-04-15T02:47:42.270Z,0.00
2023-04-15T02:48:42.136Z,0.00
2023-04-15T02:49:42.054Z,0.00
2023-04-15T02:50:41.979Z,0.00
2023-04-15T02:51:41.881Z,0.00
2023-04-15T02:52:41.827Z,0.00
2023-04-15T02:53:41.706Z,0.00
2023-04-15T02:54:41.623Z,0.00
2023-04-15T02:55:41.535Z,0.00
2023-04-15T02:56:41.463Z,0.00
2023-04-15T02:57:41.396Z,0.00
2023-04-15T02:58:41.279Z,0.00
2023-04-15T02:59:41.194Z,0.00
2023-04-15T03:00:41.109Z,0.00
2023-04-15T03:01:41.050Z,0.00
2023-04-15T03:02:41.118Z,0.00
2023-04-15T03:03:41.012Z,0.00
2023-04-15T03:04:40.770Z,0.00
2023-04-15T03:05:40.679Z,0.00
2023-04-15T03:06:40.596Z,0.00
2023-04-15T03:07:40.511Z,0.00
2023-04-15T03:08:40.423Z,0.00
2023-04-15T03:09:40.337Z,0.00
2023-04-15T03:10:40.257Z,0.00
2023-04-15T03:11:40.478Z,0.00
2023-04-15T03:12:40.088Z,0.00
2023-04-15T03:13:40.034Z,0.00
2023-04-15T03:14:39.935Z,0.00
2023-04-15T03:15:39.843Z,0.00
2023-04-15T03:16:39.737Z,0.00
2023-04-15T03:17:39.696Z,0.00
2023-04-15T03:18:39.567Z,0.00
2023-04-15T03:19:39.485Z,0.00
2023-04-15T03:20:39.432Z,0.00
2023-04-15T03:21:39.310Z,0.00
2023-04-15T03:22:39.228Z,0.00
2023-04-15T03:23:39.145Z,0.00
2023-04-15T03:24:39.056Z,0.00
2023-04-15T03:25:38.968Z,0.00
2023-04-15T03:26:38.887Z,0.00
2023-04-15T03:27:38.823Z,0.00
2023-04-15T03:28:38.714Z,0.00
2023-04-15T03:29:38.655Z,0.00
2023-04-15T03:30:38.545Z,0.00
2023-04-15T03:31:38.498Z,0.00
2023-04-15T03:32:38.511Z,0.00
2023-04-15T03:33:38.285Z,0.00
2023-04-15T03:34:38.201Z,0.00
2023-04-15T03:35:38.121Z,0.00
2023-04-15T03:36:38.028Z,0.00
2023-04-15T03:37:37.942Z,0.00
2023-04-15T03:38:37.861Z,0.00
2023-04-15T03:39:37.774Z,0.00
2023-04-15T03:40:37.685Z,0.00
2023-04-15T03:41:37.604Z,0.00
2023-04-15T03:42:37.513Z,0.00
2023-04-15T03:43:37.436Z,0.00
2023-04-15T03:44:37.351Z,0.00
2023-04-15T03:45:37.323Z,0.00
2023-04-15T03:46:37.550Z,0.00
2023-04-15T03:47:37.146Z,0.00
2023-04-15T03:48:37.052Z,0.00
2023-04-15T03:49:36.914Z,0.00
2023-04-15T03:50:36.827Z,0.00
2023-04-15T03:51:36.745Z,0.00
2023-04-15T03:52:36.657Z,0.00
2023-04-15T03:53:36.771Z,0.00
2023-04-15T03:54:36.485Z,0.00
2023-04-15T03:55:36.405Z,0.00
2023-04-15T03:56:36.315Z,0.00
2023-04-15T03:57:36.227Z,0.00
2023-04-15T03:58:36.152Z,0.00
2023-04-15T03:59:36.207Z,0.00
2023-04-15T04:00:35.972Z,0.00
2023-04-15T04:01:35.916Z,0.00
2023-04-15T04:02:35.882Z,0.00
2023-04-15T04:03:35.793Z,0.00
2023-04-15T04:04:35.676Z,0.00
2023-04-15T04:05:35.744Z,0.00
2023-04-15T04:06:35.466Z,0.00
2023-04-15T04:07:35.375Z,0.00
2023-04-15T04:08:35.285Z,4.00
2023-04-15T04:09:35.206Z,4.00
2023-04-15T04:10:35.366Z,0.00
2023-04-15T04:11:35.032Z,4.00
2023-04-15T04:12:34.954Z,4.00
2023-04-15T04:13:35.060Z,4.00
2023-04-15T04:14:34.774Z,4.00
2023-04-15T04:15:34.747Z,8.00
2023-04-15T04:16:34.660Z,8.00
2023-04-15T04:17:34.565Z,8.00
2023-04-15T04:18:34.429Z,12.00
2023-04-15T04:19:34.364Z,16.00
2023-04-15T04:20:34.261Z,16.00
2023-04-15T04:21:34.181Z,20.00
2023-04-15T04:22:34.086Z,24.00
2023-04-15T04:23:34.008Z,24.00
2023-04-15T04:24:33.914Z,28.00
2023-04-15T04:25:33.836Z,32.00
2023-04-15T04:26:33.745Z,36.00
2023-04-15T04:27:33.673Z,40.00
2023-04-15T04:28:33.572Z,44.00
2023-04-15T04:29:33.486Z,48.00
2023-04-15T04:30:33.408Z,56.00
2023-04-15T04:31:33.349Z,60.00
2023-04-15T04:32:33.258Z,68.00
2023-04-15T04:33:33.165Z,76.00
2023-04-15T04:34:33.061Z,84.00
2023-04-15T04:35:32.973Z,92.00
2023-04-15T04:36:32.887Z,100.00
2023-04-15T04:37:32.798Z,112.00
2023-04-15T04:38:32.713Z,124.00
2023-04-15T04:39:32.626Z,128.00
2023-04-15T04:40:32.541Z,140.00
2023-04-15T04:41:32.458Z,148.00
2023-04-15T04:42:32.371Z,156.00
2023-04-15T04:43:32.285Z,168.00
2023-04-15T04:44:32.204Z,172.00
2023-04-15T04:45:32.142Z,184.00
2023-04-15T04:46:32.023Z,196.00
2023-04-15T04:47:31.965Z,204.00
2023-04-15T04:48:31.855Z,212.00
2023-04-15T04:49:31.840Z,220.00
2023-04-15T04:50:31.681Z,232.00
2023-04-15T04:51:31.601Z,240.00
2023-04-15T04:52:31.508Z,248.00
2023-04-15T04:53:31.432Z,260.00
2023-04-15T04:54:31.336Z,268.00
2023-04-15T04:55:31.249Z,276.00
2023-04-15T04:56:31.165Z,288.00
2023-04-15T04:57:31.098Z,296.00
2023-04-15T04:58:30.991Z,308.00
2023-04-15T04:59:30.906Z,320.00
2023-04-15T05:00:30.821Z,324.00
2023-04-15T05:01:30.760Z,336.00
2023-04-15T05:03:30.630Z,356.00
2023-04-15T05:04:30.476Z,364.00
2023-04-15T05:05:30.413Z,372.00
2023-04-15T05:08:30.137Z,400.00
2023-04-15T05:10:29.965Z,416.00
2023-04-15T05:13:30.204Z,444.00
2023-04-15T05:14:29.622Z,452.00
2023-04-15T05:16:29.653Z,472.00
2023-04-15T05:17:29.567Z,484.00
2023-04-15T05:18:29.277Z,492.00
2023-04-15T05:22:28.997Z,528.00
2023-04-15T05:23:28.852Z,536.00
2023-04-15T05:24:28.772Z,544.00
2023-04-15T05:26:28.596Z,568.00
2023-04-15T05:30:29.471Z,624.00
2023-04-15T07:18:45.666Z,4324.00
2023-04-15T07:19:45.553Z,4228.00
2023-04-15T07:20:45.472Z,4128.00
2023-04-15T07:21:45.390Z,4072.00
2023-04-15T07:22:45.307Z,4056.00
2023-04-15T07:23:45.228Z,4032.00
2023-04-15T07:24:45.156Z,4004.00
2023-04-15T07:25:45.095Z,3992.00
2023-04-15T07:26:44.983Z,3984.00
2023-04-15T07:27:44.906Z,3980.00
2023-04-15T07:28:44.823Z,3968.00
2023-04-15T07:29:44.745Z,3912.00
2023-04-15T07:30:44.910Z,3868.00
2023-04-15T07:31:44.614Z,3848.00
2023-04-15T07:33:44.420Z,3784.00
2023-04-15T07:34:44.591Z,3740.00
2023-04-15T07:41:36.182Z,3004.00
2023-04-15T07:42:36.103Z,2932.00
2023-04-15T07:43:36.017Z,2892.00
2023-04-15T07:44:35.940Z,2880.00
2023-04-15T07:45:36.060Z,2916.00
2023-04-15T07:46:36.093Z,3032.00
2023-04-15T07:47:35.713Z,3236.00
2023-04-15T07:48:37.399Z,3516.00
2023-04-15T07:49:35.559Z,3804.00
2023-04-15T07:50:35.478Z,4056.00
2023-04-15T07:51:35.718Z,4260.00
2023-04-15T07:52:35.291Z,4464.00
2023-04-15T07:53:35.203Z,4680.00
2023-04-15T07:54:35.128Z,4896.00
2023-04-15T07:55:35.044Z,5080.00
2023-04-15T07:56:34.957Z,5220.00
2023-04-15T07:57:34.933Z,5264.00
2023-04-15T07:58:34.803Z,5268.00
2023-04-15T07:59:34.731Z,5296.00
2023-04-15T08:00:34.636Z,5380.00
2023-04-15T08:01:34.554Z,5508.00
2023-04-15T08:02:34.697Z,5596.00
2023-04-15T08:03:34.532Z,5632.00
2023-04-15T08:04:34.511Z,5604.00
2023-04-15T08:05:34.231Z,5560.00
2023-04-15T08:06:34.176Z,5464.00
2023-04-15T08:07:34.073Z,5428.00
2023-04-15T08:08:34.039Z,5380.00
2023-04-15T08:09:33.985Z,5276.00
2023-04-15T08:10:33.831Z,5140.00
2023-04-15T08:11:33.748Z,5032.00
2023-04-15T08:12:33.675Z,4940.00
2023-04-15T08:29:44.893Z,5684.00
2023-04-15T09:11:29.372Z,8968.00
2023-04-15T09:13:29.228Z,9020.00
2023-04-15T09:14:29.113Z,9060.00
2023-04-15T09:15:29.035Z,9048.00
2023-04-15T09:16:28.978Z,8960.00
2023-04-15T09:17:28.910Z,8780.00
2023-04-15T09:18:28.796Z,8628.00
2023-04-15T09:19:28.781Z,8664.00
2023-04-15T09:20:28.941Z,8796.00
2023-04-15T09:21:28.555Z,8780.00
2023-04-15T09:22:28.480Z,8812.00
2023-04-15T09:23:28.402Z,8884.00
2023-04-15T09:24:28.322Z,9040.00
2023-04-15T09:25:28.251Z,9176.00
2023-04-15T09:26:28.159Z,9312.00
2023-04-15T09:27:28.109Z,9448.00
2023-04-15T09:28:28.003Z,9608.00
2023-04-15T09:29:27.922Z,9688.00
2023-04-15T09:30:27.846Z,9700.00
2023-04-15T09:31:27.865Z,9616.00
2023-04-15T09:32:27.701Z,9624.00
2023-04-15T09:33:27.607Z,9660.00
2023-04-15T09:34:27.527Z,9668.00
2023-04-15T09:38:08.108Z,9560.00
2023-04-15T09:39:08.020Z,9452.00
2023-04-15T09:40:07.992Z,9308.00
2023-04-15T09:41:07.908Z,9068.00
2023-04-15T09:42:07.820Z,8908.00
2023-04-15T09:43:07.728Z,8780.00
2023-04-15T09:44:07.669Z,8644.00
2023-04-15T09:45:07.545Z,8468.00
2023-04-15T09:46:07.526Z,8296.00
2023-04-15T09:47:07.386Z,8192.00
2023-04-15T09:48:07.322Z,8148.00
2023-04-15T09:49:07.245Z,8112.00
2023-04-15T09:50:07.158Z,8144.00
2023-04-15T09:51:07.090Z,8220.00
2023-04-15T09:52:07.055Z,8324.00
2023-04-15T09:53:06.918Z,8400.00
2023-04-15T09:54:06.838Z,8348.00
2023-04-15T09:55:06.757Z,8120.00
2023-04-15T09:56:06.679Z,7820.00
2023-04-15T09:57:06.599Z,7608.00
2023-04-15T09:58:06.522Z,7508.00
2023-04-15T09:59:06.471Z,7460.00
2023-04-15T10:00:06.366Z,7472.00
2023-04-15T10:01:06.322Z,7500.00
2023-04-15T10:02:06.335Z,7484.00
2023-04-15T10:03:06.336Z,7372.00
2023-04-15T10:04:06.367Z,7136.00
2023-04-15T10:05:05.990Z,6976.00
2023-04-15T10:06:06.098Z,6764.00
2023-04-15T10:07:05.821Z,6464.00
2023-04-15T10:08:05.741Z,6160.00
2023-04-15T10:09:05.661Z,5992.00
2023-04-15T10:10:05.581Z,5980.00
2023-04-15T10:11:05.540Z,6152.00
2023-04-15T10:12:05.432Z,6448.00
2023-04-15T10:13:05.352Z,6896.00
2023-04-15T10:14:05.272Z,7424.00
2023-04-15T10:15:05.220Z,7824.00
2023-04-15T10:16:05.127Z,8004.00
2023-04-15T10:17:05.044Z,7900.00
2023-04-15T10:18:05.224Z,7704.00
2023-04-15T10:19:04.875Z,7692.00
2023-04-15T10:20:04.931Z,7988.00
2023-04-15T10:21:04.716Z,8300.00
2023-04-15T10:22:04.649Z,8372.00
2023-04-15T10:23:04.905Z,8196.00
2023-04-15T10:24:04.642Z,7896.00
2023-04-15T10:25:04.419Z,7544.00
2023-04-15T10:26:04.321Z,7244.00
2023-04-15T10:27:04.242Z,6976.00
2023-04-15T10:28:04.161Z,6700.00
2023-04-15T10:29:04.083Z,6452.00
2023-04-15T10:30:04.004Z,6184.00
2023-04-15T10:31:03.970Z,6092.00
2023-04-15T10:32:03.856Z,6168.00
2023-04-15T10:35:29.408Z,6748.00
2023-04-15T10:36:29.324Z,6964.00
2023-04-15T10:37:29.250Z,7196.00
2023-04-15T10:38:29.168Z,7440.00
2023-04-15T10:39:29.090Z,7676.00
2023-04-15T10:40:29.016Z,7976.00
2023-04-15T10:41:28.932Z,8344.00
2023-04-15T10:42:28.855Z,8740.00
2023-04-15T10:43:28.977Z,9140.00
2023-04-15T10:44:28.698Z,9368.00
2023-04-15T10:45:28.921Z,9360.00
2023-04-15T10:46:28.602Z,9404.00
2023-04-15T10:47:28.497Z,9452.00
2023-04-15T10:48:28.385Z,9364.00
2023-04-15T10:49:28.308Z,9452.00
2023-04-15T10:50:28.233Z,9612.00
2023-04-15T10:51:28.146Z,9512.00
2023-04-15T10:52:28.324Z,9192.00
2023-04-15T10:53:27.990Z,8828.00
2023-04-15T10:54:27.915Z,8684.00
2023-04-15T10:55:27.836Z,8588.00
2023-04-15T10:56:27.761Z,8540.00
2023-04-15T10:57:27.877Z,8628.00
2023-04-15T10:58:27.802Z,8808.00
2023-04-15T11:01:27.633Z,11664.00
2023-04-15T11:02:27.474Z,16768.00
2023-04-15T11:03:27.909Z,19616.00
2023-04-15T11:04:27.363Z,19776.00
2023-04-15T11:05:27.595Z,18528.00
2023-04-15T11:08:26.818Z,18688.00
2023-04-15T11:09:27.189Z,17152.00
2023-04-15T11:10:26.673Z,16832.00
2023-04-15T11:11:26.585Z,18336.00
2023-04-15T11:12:26.611Z,19840.00
2023-04-15T11:13:26.427Z,17184.00
2023-04-15T11:14:26.361Z,18752.00
2023-04-15T11:15:26.290Z,25088.00
2023-04-15T11:16:26.253Z,18400.00
2023-04-15T11:17:26.150Z,20256.00
2023-04-15T11:18:26.068Z,24192.00
2023-04-15T11:19:25.966Z,28896.00
2023-04-15T11:20:25.901Z,27328.00
2023-04-15T11:21:25.819Z,26304.00
2023-04-15T11:22:25.840Z,22784.00
2023-04-15T11:24:08.520Z,22944.00
2023-04-15T12:34:36.947Z,5396.00
2023-04-15T12:35:36.760Z,5716.00
2023-04-15T12:36:36.665Z,6024.00
2023-04-15T12:37:36.589Z,6460.00
2023-04-15T12:38:36.509Z,6904.00
2023-04-15T12:39:36.429Z,7092.00
2023-04-15T12:40:36.355Z,7036.00
2023-04-15T12:41:36.270Z,6740.00
2023-04-15T12:42:36.191Z,6440.00
2023-04-15T12:52:54.431Z,8456.00
2023-04-15T12:53:54.286Z,8284.00
2023-04-15T12:54:54.208Z,8244.00
2023-04-15T12:55:54.276Z,8084.00
2023-04-15T12:56:54.047Z,7948.00
2023-04-15T12:57:53.968Z,8120.00
2023-04-15T12:58:53.895Z,8300.00
2023-04-15T12:59:53.853Z,7844.00
2023-04-15T13:00:53.729Z,7348.00
2023-04-15T13:01:54.300Z,7044.00
2023-04-15T13:02:53.629Z,6848.00
2023-04-15T13:03:53.633Z,6612.00
2023-04-15T13:04:53.451Z,6312.00
2023-04-15T13:05:53.340Z,6000.00
2023-04-15T13:06:53.253Z,5904.00
2023-04-15T13:07:53.182Z,5888.00
2023-04-15T13:08:58.207Z,5928.00
2023-04-15T13:09:53.020Z,5908.00
2023-04-15T13:10:52.947Z,5896.00
2023-04-15T13:11:53.008Z,5808.00
2023-04-15T14:12:37.469Z,1684.00
2023-04-15T14:13:37.371Z,1768.00
2023-04-15T14:14:37.299Z,1696.00
2023-04-15T14:15:37.258Z,2340.00
2023-04-15T14:16:37.197Z,2176.00
2023-04-15T14:17:37.132Z,2520.00
2023-04-15T14:18:37.004Z,2772.00
2023-04-15T14:19:36.892Z,3140.00
2023-04-15T14:20:37.022Z,3600.00
2023-04-15T14:21:36.760Z,4008.00
2023-04-15T14:22:36.649Z,4336.00
2023-04-15T14:23:36.568Z,4480.00
2023-04-15T14:24:36.488Z,4444.00
2023-04-15T14:25:36.412Z,4516.00
2023-04-15T14:26:36.363Z,4336.00
2023-04-15T14:27:36.254Z,4192.00
2023-04-15T14:28:36.183Z,4172.00
2023-04-15T14:29:36.118Z,4312.00
2023-04-15T14:30:36.072Z,3888.00
2023-04-15T14:31:35.958Z,3380.00
2023-04-15T14:32:35.893Z,3184.00
2023-04-15T14:34:35.908Z,3660.00
2023-04-15T14:35:36.256Z,3740.00
2023-04-15T14:52:55.888Z,2572.00
2023-04-15T14:55:55.007Z,2832.00
2023-04-15T14:56:56.038Z,2924.00
2023-04-15T15:00:54.399Z,2472.00
2023-04-15T15:01:54.788Z,2440.00
2023-04-15T15:02:55.040Z,2540.00
2023-04-15T15:03:54.164Z,2332.00
2023-04-15T15:10:53.813Z,2096.00
2023-04-15T15:19:53.928Z,2100.00
2023-04-15T15:25:52.973Z,3276.00
2023-04-15T15:32:52.465Z,1948.00
2023-04-15T15:33:52.124Z,2228.00
2023-04-15T15:35:51.966Z,2360.00
2023-04-15T15:41:51.066Z,2128.00
2023-04-15T15:44:50.828Z,1896.00
2023-04-15T15:48:51.378Z,2396.00
2023-04-15T15:49:50.413Z,2700.00
2023-04-15T15:50:50.356Z,2488.00
2023-04-15T15:53:50.300Z,2684.00
2023-04-15T15:54:51.938Z,2536.00
2023-04-15T15:56:51.264Z,2432.00
2023-04-15T16:04:49.488Z,1496.00
2023-04-15T16:08:49.274Z,1764.00
2023-04-15T16:10:48.751Z,1636.00
2023-04-15T16:11:50.158Z,1272.00
2023-04-15T16:12:49.217Z,1424.00
2023-04-15T16:13:48.669Z,1628.00
2023-04-15T16:14:48.590Z,1696.00
2023-04-15T16:18:48.968Z,1764.00
2023-04-15T16:26:04.900Z,1192.00
2023-04-15T16:27:04.797Z,1028.00
2023-04-15T16:28:14.716Z,788.00
2023-04-15T16:29:05.016Z,920.00
2023-04-15T16:30:04.544Z,832.00
2023-04-15T16:31:04.477Z,856.00
2023-04-15T16:32:04.521Z,1092.00
2023-04-15T16:33:04.370Z,880.00
2023-04-15T16:34:04.213Z,900.00
2023-04-15T16:35:04.134Z,856.00
2023-04-15T16:36:04.092Z,864.00
2023-04-15T16:37:03.969Z,672.00
2023-04-15T16:38:04.386Z,752.00
2023-04-15T16:39:04.294Z,612.00
2023-04-15T16:40:03.934Z,608.00
2023-04-15T16:41:03.850Z,596.00
2023-04-15T16:42:03.622Z,696.00
2023-04-15T16:43:03.477Z,604.00
2023-04-15T16:44:03.491Z,500.00
2023-04-15T16:45:03.528Z,536.00
2023-04-15T16:46:03.272Z,572.00
2023-04-15T16:47:03.168Z,508.00
2023-04-15T16:48:03.405Z,592.00
2023-04-15T16:49:03.419Z,564.00
2023-04-15T16:50:02.942Z,520.00
2023-04-15T16:51:02.830Z,500.00
2023-04-15T16:52:02.941Z,408.00
2023-04-15T16:54:02.573Z,440.00
2023-04-15T16:55:02.700Z,448.00
2023-04-15T16:56:02.422Z,476.00
2023-04-15T16:57:02.539Z,452.00
2023-04-15T16:58:04.175Z,464.00
2023-04-15T16:59:02.333Z,488.00
2023-04-15T17:00:02.095Z,516.00
2023-04-15T17:01:02.093Z,472.00
2023-04-15T17:02:01.955Z,488.00
2023-04-15T17:03:02.238Z,436.00
2023-04-15T17:04:01.906Z,452.00
2023-04-15T17:05:01.836Z,484.00
2023-04-15T17:06:01.593Z,584.00
2023-04-15T17:07:01.509Z,596.00
2023-04-15T17:08:01.428Z,560.00
2023-04-15T17:09:01.344Z,540.00
2023-04-15T17:10:01.487Z,548.00
2023-04-15T17:11:01.241Z,568.00
2023-04-15T17:12:01.106Z,504.00
2023-04-15T17:13:01.219Z,540.00
2023-04-15T17:14:00.972Z,428.00
2023-04-15T17:15:00.858Z,384.00
2023-04-15T17:16:00.810Z,356.00
2023-04-15T17:17:00.689Z,396.00
2023-04-15T17:18:00.685Z,368.00
2023-04-15T17:19:00.561Z,380.00
2023-04-15T17:20:00.453Z,420.00
2023-04-15T17:21:00.563Z,356.00
2023-04-15T17:22:00.290Z,368.00
2023-04-15T17:23:00.203Z,332.00
2023-04-15T17:24:00.156Z,296.00
2023-04-15T17:25:00.041Z,376.00
2023-04-15T17:25:59.954Z,368.00
2023-04-15T17:27:01.469Z,368.00
2023-04-15T17:27:59.791Z,408.00
2023-04-15T17:28:59.708Z,400.00
2023-04-15T17:29:59.648Z,416.00
2023-04-15T17:30:59.570Z,444.00
2023-04-15T17:31:59.472Z,392.00
2023-04-15T17:32:59.420Z,448.00
2023-04-15T17:34:03.638Z,404.00
2023-04-15T17:34:59.283Z,416.00
2023-04-15T17:35:59.139Z,404.00
2023-04-15T17:36:59.350Z,348.00
2023-04-15T17:37:58.976Z,288.00
2023-04-15T17:38:58.893Z,328.00
2023-04-15T17:39:58.816Z,248.00
2023-04-15T17:40:58.741Z,208.00
2023-04-15T17:41:58.657Z,204.00
2023-04-15T17:42:58.579Z,172.00
2023-04-15T17:43:58.788Z,148.00
2023-04-15T17:44:58.406Z,132.00
2023-04-15T17:45:58.719Z,140.00
2023-04-15T17:46:58.262Z,124.00
2023-04-15T17:47:58.210Z,100.00
2023-04-15T17:48:58.078Z,108.00
2023-04-15T17:49:58.353Z,88.00
2023-04-15T17:50:57.924Z,76.00
2023-04-15T17:51:57.841Z,68.00
2023-04-15T17:52:57.758Z,60.00
2023-04-15T17:53:57.674Z,52.00
2023-04-15T17:54:57.605Z,48.00
2023-04-15T17:55:57.507Z,52.00
2023-04-15T17:56:57.429Z,52.00
2023-04-15T17:57:57.344Z,40.00
2023-04-15T17:58:57.259Z,36.00
2023-04-15T17:59:57.178Z,36.00
2023-04-15T18:00:57.094Z,32.00
2023-04-15T18:01:57.094Z,28.00
2023-04-15T18:02:57.109Z,24.00
2023-04-15T18:03:57.076Z,24.00
2023-04-15T18:04:56.901Z,24.00
2023-04-15T18:05:56.691Z,28.00
2023-04-15T18:06:56.607Z,24.00
2023-04-15T18:07:56.538Z,20.00
2023-04-15T18:08:56.438Z,20.00
2023-04-15T18:09:56.368Z,20.00
2023-04-15T18:10:56.297Z,20.00
2023-04-15T18:11:56.200Z,20.00
2023-04-15T18:12:56.111Z,16.00
2023-04-15T18:13:56.033Z,16.00
2023-04-15T18:14:55.950Z,16.00
2023-04-15T18:15:55.982Z,12.00
2023-04-15T18:16:55.790Z,12.00
2023-04-15T18:17:55.756Z,8.00
2023-04-15T18:18:55.622Z,8.00
2023-04-15T18:19:55.551Z,4.00
2023-04-15T18:20:55.460Z,8.00
2023-04-15T18:21:55.380Z,8.00
2023-04-15T18:22:55.298Z,4.00
2023-04-15T18:23:55.214Z,8.00
2023-04-15T18:24:55.139Z,4.00
2023-04-15T18:25:55.086Z,4.00
2023-04-15T18:27:55.091Z,4.00
2023-04-15T18:28:54.844Z,4.00
2023-04-15T18:29:54.727Z,4.00
2023-04-15T18:30:54.909Z,4.00
2023-04-15T18:31:54.727Z,0.00
2023-04-15T18:32:54.875Z,0.00
2023-04-15T18:33:54.462Z,4.00
2023-04-15T18:34:54.356Z,4.00
2023-04-15T18:35:54.272Z,0.00
2023-04-15T18:36:54.190Z,0.00
2023-04-15T18:37:54.108Z,0.00
2023-04-15T18:38:54.026Z,0.00
2023-04-15T18:39:53.944Z,0.00
2023-04-15T18:40:53.875Z,0.00
2023-04-15T18:41:53.784Z,0.00
2023-04-15T18:42:53.705Z,0.00
2023-04-15T18:43:53.591Z,0.00
2023-04-15T18:44:53.566Z,0.00
2023-04-15T18:45:53.466Z,0.00
2023-04-15T18:47:53.331Z,0.00
2023-04-15T18:48:53.227Z,0.00
2023-04-15T18:50:53.105Z,0.00
2023-04-15T18:51:52.967Z,0.00
2023-04-15T18:52:52.897Z,0.00
2023-04-15T18:53:52.810Z,0.00
2023-04-15T18:54:52.718Z,0.00
2023-04-15T18:55:52.818Z,0.00
2023-04-15T18:56:52.558Z,0.00
2023-04-15T18:57:52.439Z,0.00
2023-04-15T18:59:23.037Z,0.00
2023-04-15T18:59:52.315Z,0.00
2023-04-15T19:00:52.313Z,0.00
2023-04-15T19:01:52.241Z,0.00
2023-04-15T19:02:52.221Z,0.00
2023-04-15T19:03:52.083Z,0.00
2023-04-15T19:04:52.105Z,0.00
2023-04-15T19:05:51.819Z,0.00
2023-04-15T19:06:52.249Z,0.00
2023-04-15T19:07:51.663Z,0.00
2023-04-15T19:08:51.579Z,0.00
2023-04-15T19:09:51.690Z,0.00
2023-04-15T19:10:51.423Z,0.00
2023-04-15T19:11:51.330Z,0.00
2023-04-15T19:12:51.210Z,0.00
2023-04-15T19:13:51.268Z,0.00
2023-04-15T19:14:51.099Z,0.00
2023-04-15T19:15:50.996Z,0.00
2023-04-15T19:16:51.330Z,0.00
2023-04-15T19:17:51.036Z,0.00
2023-04-15T19:18:50.720Z,0.00
2023-04-15T19:19:50.673Z,0.00
2023-04-15T19:20:50.895Z,0.00
2023-04-15T19:21:50.913Z,0.00
2023-04-15T19:22:50.432Z,0.00
2023-04-15T19:23:50.323Z,0.00
2023-04-15T19:24:50.468Z,0.00
2023-04-15T19:25:50.144Z,0.00
2023-04-15T19:26:50.102Z,0.00
2023-04-15T19:27:50.015Z,0.00
2023-04-15T19:28:50.501Z,0.00
2023-04-15T19:29:49.856Z,0.00
2023-04-15T19:31:50.516Z,0.00
2023-04-15T19:32:49.622Z,0.00
2023-04-15T19:34:49.445Z,0.00
2023-04-15T19:35:49.365Z,0.00
2023-04-15T19:36:49.291Z,0.00
2023-04-15T19:37:49.201Z,0.00
2023-04-15T19:38:49.118Z,0.00
2023-04-15T19:39:49.033Z,0.00
2023-04-15T19:40:48.959Z,0.00
2023-04-15T19:41:48.865Z,0.00
2023-04-15T19:42:48.789Z,0.00
2023-04-15T19:43:48.718Z,0.00
2023-04-15T19:44:48.637Z,0.00
2023-04-15T19:45:48.560Z,0.00
2023-04-15T19:46:48.459Z,0.00